createdAt,value
2022-11-10T00:00:07.097Z,11.1
2022-11-10T00:01:07.157Z,11.1
2022-11-10T00:02:07.219Z,11.1
2022-11-10T00:03:07.245Z,11.1
2022-11-10T00:04:07.392Z,11.1
2022-11-10T00:05:07.377Z,11.2
2022-11-10T00:06:07.445Z,11.2
2022-11-10T00:07:07.496Z,11.1
2022-11-10T00:08:07.504Z,11.2
2022-11-10T00:09:07.545Z,11.2
2022-11-10T00:10:07.587Z,11.2
2022-11-10T00:11:07.615Z,11.2
2022-11-10T00:12:07.685Z,11
2022-11-10T00:13:07.763Z,11.1
2022-11-10T00:14:07.781Z,11.1
2022-11-10T00:15:07.858Z,11.1
2022-11-10T00:16:07.921Z,11.1
2022-11-10T00:17:07.992Z,11.2
2022-11-10T00:18:08.009Z,11.3
2022-11-10T00:19:08.050Z,11.1
2022-11-10T00:20:08.137Z,11.2
2022-11-10T00:21:08.185Z,11.2
2022-11-10T00:22:08.317Z,11.1
2022-11-10T00:23:08.353Z,11.1
2022-11-10T00:24:08.510Z,11.1
2022-11-10T00:25:08.494Z,11.1
2022-11-10T00:26:08.527Z,11.2
2022-11-10T00:27:08.624Z,11.3
2022-11-10T00:28:08.713Z,11.4
2022-11-10T00:29:08.721Z,11.4
2022-11-10T00:30:08.757Z,11.2
2022-11-10T00:31:08.897Z,11.2
2022-11-10T00:32:09.233Z,11.2
2022-11-10T00:33:08.957Z,11.2
2022-11-10T00:34:09.128Z,11.2
2022-11-10T00:35:09.133Z,11.1
2022-11-10T00:36:09.277Z,11.1
2022-11-10T00:37:09.277Z,11.1
2022-11-10T00:38:09.431Z,11.1
2022-11-10T00:39:09.389Z,11.1
2022-11-10T00:40:09.459Z,11.1
2022-11-10T00:41:09.562Z,11.2
2022-11-10T00:42:09.626Z,11.1
2022-11-10T00:43:09.720Z,11.1
2022-11-10T00:44:09.748Z,11.1
2022-11-10T00:45:09.857Z,11.1
2022-11-10T00:46:09.937Z,11.1
2022-11-10T00:47:09.974Z,11.1
2022-11-10T00:48:10.032Z,11.2
2022-11-10T00:49:10.099Z,11.1
2022-11-10T00:50:10.169Z,11.1
2022-11-10T00:51:10.214Z,11.1
2022-11-10T00:52:10.261Z,11.1
2022-11-10T00:53:10.315Z,11
2022-11-10T00:54:10.416Z,11
2022-11-10T00:55:10.432Z,11.1
2022-11-10T00:56:10.485Z,11
2022-11-10T00:57:10.575Z,11
2022-11-10T00:58:10.626Z,10.9
2022-11-10T00:59:10.658Z,10.8
2022-11-10T01:00:10.747Z,10.9
2022-11-10T01:01:10.858Z,11
2022-11-10T01:02:10.900Z,11
2022-11-10T01:03:10.940Z,10.9
2022-11-10T01:04:10.997Z,11
2022-11-10T01:05:11.069Z,11
2022-11-10T01:06:11.165Z,10.9
2022-11-10T01:07:11.238Z,10.9
2022-11-10T01:08:11.331Z,10.9
2022-11-10T01:09:11.416Z,10.6
2022-11-10T01:10:11.456Z,10.6
2022-11-10T01:11:11.511Z,10.6
2022-11-10T01:12:11.636Z,10.6
2022-11-10T01:13:11.770Z,10.7
2022-11-10T01:14:11.765Z,10.7
2022-11-10T01:15:11.844Z,10.8
2022-11-10T01:16:11.900Z,10.7
2022-11-10T01:17:21.933Z,10.7
2022-11-10T01:18:12.035Z,10.8
2022-11-10T01:19:12.089Z,10.8
2022-11-10T01:20:12.196Z,10.9
2022-11-10T01:21:12.245Z,10.9
2022-11-10T01:22:12.318Z,10.8
2022-11-10T01:23:12.398Z,10.8
2022-11-10T01:24:12.442Z,10.8
2022-11-10T01:25:12.513Z,10.9
2022-11-10T01:26:12.606Z,10.8
2022-11-10T01:27:12.664Z,10.7
2022-11-10T01:28:12.784Z,10.6
2022-11-10T01:29:12.847Z,10.8
2022-11-10T01:30:12.898Z,10.8
2022-11-10T01:31:12.988Z,10.6
2022-11-10T01:32:13.083Z,10.6
2022-11-10T01:33:13.211Z,10.6
2022-11-10T01:34:13.251Z,10.6
2022-11-10T01:35:13.310Z,10.6
2022-11-10T01:36:13.403Z,10.6
2022-11-10T01:37:13.459Z,10.6
2022-11-10T01:38:13.553Z,10.5
2022-11-10T01:39:13.596Z,10.5
2022-11-10T01:40:13.706Z,10.5
2022-11-10T01:41:13.748Z,10.4
2022-11-10T01:42:13.837Z,10.5
2022-11-10T01:43:13.914Z,10.6
2022-11-10T01:44:14.011Z,10.6
2022-11-10T01:45:14.074Z,10.5
2022-11-10T01:46:14.144Z,10.6
2022-11-10T01:47:14.227Z,10.5
2022-11-10T01:48:14.329Z,10.5
2022-11-10T01:49:14.391Z,10.6
2022-11-10T01:50:14.465Z,10.7
2022-11-10T01:51:14.523Z,10.6
2022-11-10T01:52:14.608Z,10.5
2022-11-10T01:53:14.730Z,10.4
2022-11-10T01:54:14.793Z,10.5
2022-11-10T01:55:14.868Z,10.4
2022-11-10T01:56:14.925Z,10.4
2022-11-10T01:57:15.025Z,10.4
2022-11-10T01:58:15.143Z,10.4
2022-11-10T01:59:15.165Z,10.4
2022-11-10T02:00:15.248Z,10.5
2022-11-10T02:01:15.384Z,10.5
2022-11-10T02:02:15.388Z,10.4
2022-11-10T02:03:15.444Z,10.3
2022-11-10T02:04:15.454Z,10.4
2022-11-10T02:05:15.528Z,10.5
2022-11-10T02:06:15.611Z,10.6
2022-11-10T02:07:15.697Z,10.5
2022-11-10T02:08:15.739Z,10.5
2022-11-10T02:09:15.792Z,10.4
2022-11-10T02:10:15.869Z,10.5
2022-11-10T02:11:15.975Z,10.5
2022-11-10T02:12:15.996Z,10.5
2022-11-10T02:13:16.063Z,10.4
2022-11-10T02:14:16.154Z,10.5
2022-11-10T02:15:16.202Z,10.5
2022-11-10T02:16:16.282Z,10.5
2022-11-10T02:17:16.311Z,10.4
2022-11-10T02:18:16.437Z,10.5
2022-11-10T02:19:16.476Z,10.5
2022-11-10T02:20:16.534Z,10.4
2022-11-10T02:21:16.606Z,10.3
2022-11-10T02:22:16.672Z,10.3
2022-11-10T02:23:16.742Z,10.3
2022-11-10T02:24:16.845Z,10.3
2022-11-10T02:25:16.859Z,10.3
2022-11-10T02:26:16.969Z,10.2
2022-11-10T02:27:17.019Z,10.3
2022-11-10T02:28:17.119Z,10.3
2022-11-10T02:29:17.159Z,10.4
2022-11-10T02:30:17.244Z,10.3
2022-11-10T02:31:17.307Z,10.2
2022-11-10T02:32:17.368Z,10.1
2022-11-10T02:33:17.462Z,10.1
2022-11-10T02:34:23.936Z,10.1
2022-11-10T02:36:00.881Z,10.1
2022-11-10T02:36:17.672Z,10.2
2022-11-10T02:37:17.768Z,10.1
2022-11-10T02:38:17.804Z,10.1
2022-11-10T02:39:17.877Z,10.2
2022-11-10T02:40:17.958Z,10.2
2022-11-10T02:41:18.060Z,10.2
2022-11-10T02:42:18.105Z,10.2
2022-11-10T02:43:18.209Z,10.2
2022-11-10T02:44:18.266Z,10.2
2022-11-10T02:45:18.333Z,10.3
2022-11-10T02:46:18.427Z,10.2
2022-11-10T02:47:18.483Z,10.1
2022-11-10T02:48:18.592Z,10.1
2022-11-10T02:49:18.612Z,10.1
2022-11-10T02:50:18.705Z,10.2
2022-11-10T02:51:18.771Z,10.3
2022-11-10T02:52:18.869Z,10.3
2022-11-10T02:53:19.052Z,10.3
2022-11-10T02:54:19.069Z,10.4
2022-11-10T02:55:19.067Z,10.3
2022-11-10T02:56:19.140Z,10.2
2022-11-10T02:57:19.240Z,10.2
2022-11-10T02:58:19.323Z,10.1
2022-11-10T02:59:19.382Z,10.1
2022-11-10T03:00:19.458Z,10.1
2022-11-10T03:01:19.549Z,10.1
2022-11-10T03:02:19.627Z,10.1
2022-11-10T03:03:20.029Z,10
2022-11-10T03:04:19.760Z,10
2022-11-10T03:05:19.801Z,10
2022-11-10T03:06:19.893Z,10.1
2022-11-10T03:07:19.986Z,10.1
2022-11-10T03:08:20.061Z,10
2022-11-10T03:09:20.225Z,10.1
2022-11-10T03:10:20.205Z,10.1
2022-11-10T03:11:20.271Z,10
2022-11-10T03:12:20.329Z,10
2022-11-10T03:13:20.714Z,9.8
2022-11-10T03:14:20.466Z,9.7
2022-11-10T03:15:20.536Z,9.8
2022-11-10T03:16:20.534Z,9.8
2022-11-10T03:17:20.613Z,9.8
2022-11-10T03:18:20.748Z,9.9
2022-11-10T03:19:20.748Z,9.8
2022-11-10T03:20:20.809Z,9.9
2022-11-10T03:21:20.880Z,9.9
2022-11-10T03:22:20.922Z,9.7
2022-11-10T03:23:21.253Z,9.8
2022-11-10T03:24:21.093Z,9.8
2022-11-10T03:25:21.147Z,9.8
2022-11-10T03:26:21.217Z,9.8
2022-11-10T03:27:21.247Z,9.8
2022-11-10T03:28:22.572Z,9.7
2022-11-10T03:29:21.422Z,9.6
2022-11-10T03:30:21.591Z,9.8
2022-11-10T03:32:18.815Z,9.8
2022-11-10T03:32:22.748Z,9.7
2022-11-10T03:33:21.923Z,9.6
2022-11-10T03:34:21.763Z,9.7
2022-11-10T03:35:21.803Z,9.7
2022-11-10T03:36:21.846Z,9.8
2022-11-10T03:37:21.875Z,9.7
2022-11-10T03:38:22.015Z,9.7
2022-11-10T03:39:22.038Z,9.8
2022-11-10T03:40:22.073Z,9.7
2022-11-10T03:41:22.176Z,9.5
2022-11-10T03:42:22.220Z,9.5
2022-11-10T03:43:22.654Z,9.6
2022-11-10T03:44:22.323Z,9.7
2022-11-10T03:45:22.365Z,9.5
2022-11-10T03:46:22.416Z,9.5
2022-11-10T03:47:27.135Z,9.5
2022-11-10T03:48:27.189Z,9.6
2022-11-10T03:49:27.258Z,9.6
2022-11-10T03:50:27.246Z,9.6
2022-11-10T03:51:27.304Z,9.6
2022-11-10T03:52:27.389Z,9.6
2022-11-10T03:53:27.457Z,9.6
2022-11-10T03:54:27.505Z,9.5
2022-11-10T03:55:27.609Z,9.6
2022-11-10T03:56:27.688Z,9.6
2022-11-10T03:57:27.695Z,9.5
2022-11-10T03:58:27.802Z,9.5
2022-11-10T03:59:27.863Z,9.6
2022-11-10T04:00:27.904Z,9.5
2022-11-10T04:01:28.064Z,9.6
2022-11-10T04:02:28.061Z,9.6
2022-11-10T04:03:28.157Z,9.5
2022-11-10T04:04:28.203Z,9.4
2022-11-10T04:05:28.293Z,9.4
2022-11-10T04:06:28.340Z,9.5
2022-11-10T04:07:28.410Z,9.5
2022-11-10T04:08:28.500Z,9.5
2022-11-10T04:09:28.533Z,9.5
2022-11-10T04:10:28.585Z,9.4
2022-11-10T04:11:28.723Z,9.4
2022-11-10T04:12:28.742Z,9.5
2022-11-10T04:13:28.857Z,9.5
2022-11-10T04:14:28.926Z,9.5
2022-11-10T04:15:28.959Z,9.6
2022-11-10T04:16:29.048Z,9.5
2022-11-10T04:17:29.099Z,9.5
2022-11-10T04:18:29.222Z,9.5
2022-11-10T04:19:29.272Z,9.6
2022-11-10T04:20:29.352Z,9.7
2022-11-10T04:21:37.932Z,9.6
2022-11-10T04:22:43.799Z,9.5
2022-11-10T04:23:29.564Z,9.4
2022-11-10T04:24:34.623Z,9.5
2022-11-10T04:25:29.673Z,9.5
2022-11-10T04:26:29.768Z,9.5
2022-11-10T04:27:29.741Z,9.6
2022-11-10T04:28:30.320Z,9.5
2022-11-10T04:29:31.787Z,9.5
2022-11-10T04:31:30.301Z,9.3
2022-11-10T04:31:37.640Z,9.4
2022-11-10T04:32:30.086Z,9.4
2022-11-10T04:33:30.205Z,9.5
2022-11-10T04:34:30.251Z,9.5
2022-11-10T04:35:30.358Z,9.5
2022-11-10T04:36:30.386Z,9.4
2022-11-10T04:37:30.500Z,9.4
2022-11-10T04:38:30.550Z,9.5
2022-11-10T04:39:30.589Z,9.4
2022-11-10T04:40:30.665Z,9.4
2022-11-10T04:41:30.730Z,9.5
2022-11-10T04:42:30.807Z,9.6
2022-11-10T04:43:30.903Z,9.7
2022-11-10T04:44:30.945Z,9.5
2022-11-10T04:45:31.039Z,9.5
2022-11-10T04:46:31.114Z,9.4
2022-11-10T04:47:31.176Z,9.3
2022-11-10T04:48:31.288Z,9.4
2022-11-10T04:49:31.316Z,9.5
2022-11-10T04:50:31.360Z,9.5
2022-11-10T04:51:31.578Z,9.4
2022-11-10T04:52:31.549Z,9.5
2022-11-10T04:53:31.647Z,9.6
2022-11-10T04:54:31.779Z,9.6
2022-11-10T04:55:31.741Z,9.5
2022-11-10T04:56:31.814Z,9.3
2022-11-10T04:57:31.890Z,9.3
2022-11-10T04:58:32.021Z,9.4
2022-11-10T04:59:32.053Z,9.5
2022-11-10T05:00:32.200Z,9.5
2022-11-10T05:01:32.561Z,9.4
2022-11-10T05:02:35.598Z,9.4
2022-11-10T05:03:32.333Z,9.3
2022-11-10T05:04:32.394Z,9.2
2022-11-10T05:05:32.473Z,9.2
2022-11-10T05:06:32.537Z,9.3
2022-11-10T05:07:32.598Z,9.3
2022-11-10T05:08:32.700Z,9.4
2022-11-10T05:09:32.791Z,9.5
2022-11-10T05:10:32.856Z,9.4
2022-11-10T05:11:32.931Z,9.3
2022-11-10T05:12:33.014Z,9.3
2022-11-10T05:13:33.098Z,9.5
2022-11-10T05:14:33.160Z,9.4
2022-11-10T05:15:33.211Z,9.3
2022-11-10T05:16:33.290Z,9.3
2022-11-10T05:17:53.544Z,9.3
2022-11-10T05:18:59.624Z,9.3
2022-11-10T05:19:59.694Z,9.3
2022-11-10T05:20:59.719Z,9.2
2022-11-10T05:21:59.830Z,9.1
2022-11-10T05:22:59.884Z,9.2
2022-11-10T05:24:00.027Z,9.3
2022-11-10T05:25:00.085Z,9.4
2022-11-10T05:26:05.109Z,9.5
2022-11-10T05:27:01.175Z,9.4
2022-11-10T05:28:00.477Z,9.5
2022-11-10T05:29:00.340Z,9.5
2022-11-10T05:30:00.362Z,9.5
2022-11-10T05:31:00.431Z,9.4
2022-11-10T05:32:00.510Z,9.3
2022-11-10T05:33:00.534Z,9.3
2022-11-10T05:34:01.995Z,9.3
2022-11-10T05:35:00.738Z,9.4
2022-11-10T05:36:00.778Z,9.4
2022-11-10T05:37:00.864Z,9.4
2022-11-10T05:38:00.877Z,9.3
2022-11-10T05:39:00.935Z,9.2
2022-11-10T05:40:00.990Z,9.2
2022-11-10T05:41:01.118Z,9.1
2022-11-10T05:42:01.122Z,9.1
2022-11-10T05:43:01.552Z,9.2
2022-11-10T05:44:01.277Z,9.2
2022-11-10T05:45:01.549Z,9.1
2022-11-10T05:46:01.365Z,9.1
2022-11-10T05:47:01.415Z,9
2022-11-10T05:48:01.469Z,9
2022-11-10T05:49:01.590Z,9
2022-11-10T05:50:01.613Z,9
2022-11-10T05:51:01.664Z,9
2022-11-10T05:52:01.733Z,9.1
2022-11-10T05:53:01.817Z,9
2022-11-10T05:54:01.921Z,9.2
2022-11-10T05:55:02.251Z,9.1
2022-11-10T05:56:02.042Z,9.1
2022-11-10T05:57:02.160Z,9
2022-11-10T05:58:02.180Z,9.1
2022-11-10T05:59:02.287Z,9.1
2022-11-10T06:00:12.342Z,9
2022-11-10T06:01:02.416Z,9
2022-11-10T06:02:02.490Z,8.9
2022-11-10T06:03:02.614Z,9
2022-11-10T06:04:02.691Z,9
2022-11-10T06:05:02.669Z,9.1
2022-11-10T06:06:02.707Z,9.1
2022-11-10T06:07:02.879Z,9.1
2022-11-10T06:08:02.852Z,9.1
2022-11-10T06:09:02.945Z,9.1
2022-11-10T06:10:02.993Z,9.1
2022-11-10T06:11:03.066Z,9.2
2022-11-10T06:12:03.133Z,9.1
2022-11-10T06:13:03.270Z,9.1
2022-11-10T06:14:03.311Z,9.2
2022-11-10T06:15:03.357Z,9
2022-11-10T06:16:03.421Z,9
2022-11-10T06:17:03.501Z,9
2022-11-10T06:18:03.563Z,9.1
2022-11-10T06:19:06.346Z,9.1
2022-11-10T06:20:06.389Z,9
2022-11-10T06:21:06.421Z,9
2022-11-10T06:22:07.744Z,9
2022-11-10T06:23:06.610Z,9
2022-11-10T06:24:06.688Z,9
2022-11-10T06:25:06.891Z,8.9
2022-11-10T06:26:06.821Z,8.9
2022-11-10T06:27:06.895Z,9
2022-11-10T06:28:07.004Z,8.9
2022-11-10T06:29:07.048Z,8.9
2022-11-10T06:30:07.140Z,8.9
2022-11-10T06:31:07.242Z,8.9
2022-11-10T06:32:07.312Z,8.9
2022-11-10T06:33:07.360Z,8.9
2022-11-10T06:34:07.560Z,9
2022-11-10T06:35:07.494Z,9
2022-11-10T06:36:07.569Z,9
2022-11-10T06:37:07.632Z,8.9
2022-11-10T06:38:07.722Z,9
2022-11-10T06:39:07.817Z,9
2022-11-10T06:40:07.891Z,9
2022-11-10T06:41:07.953Z,9.1
2022-11-10T06:42:07.994Z,9
2022-11-10T06:43:08.125Z,9
2022-11-10T06:44:08.203Z,8.9
2022-11-10T06:45:08.222Z,9
2022-11-10T06:46:08.271Z,9
2022-11-10T06:47:08.339Z,9.1
2022-11-10T06:48:08.401Z,9.1
2022-11-10T06:49:08.494Z,9.1
2022-11-10T06:50:08.477Z,9.1
2022-11-10T06:51:08.548Z,9
2022-11-10T06:52:08.606Z,8.9
2022-11-10T06:55:08.822Z,8.8
2022-11-10T06:56:14.087Z,8.8
2022-11-10T06:57:08.934Z,8.9
2022-11-10T06:58:09.697Z,8.9
2022-11-10T06:59:21.095Z,8.9
2022-11-10T07:00:09.189Z,8.9
2022-11-10T07:01:09.383Z,8.9
2022-11-10T07:02:09.500Z,9.1
2022-11-10T07:03:09.299Z,9.1
2022-11-10T07:04:22.154Z,9.1
2022-11-10T07:05:09.458Z,9
2022-11-10T07:06:09.497Z,9.1
2022-11-10T07:07:09.585Z,9.1
2022-11-10T07:08:09.637Z,9.1
2022-11-10T07:09:09.720Z,9.2
2022-11-10T07:10:09.823Z,9.3
2022-11-10T07:11:09.879Z,9.3
2022-11-10T07:12:09.971Z,9.3
2022-11-10T07:13:10.012Z,9.3
2022-11-10T07:14:10.102Z,9.3
2022-11-10T07:15:10.221Z,9.4
2022-11-10T07:16:10.237Z,9.3
2022-11-10T07:17:10.291Z,9.4
2022-11-10T07:18:10.375Z,9.5
2022-11-10T07:19:10.466Z,9.4
2022-11-10T07:20:10.508Z,9.4
2022-11-10T07:21:10.559Z,9.4
2022-11-10T07:22:11.336Z,9.4
2022-11-10T07:23:10.728Z,9.5
2022-11-10T07:31:11.494Z,9.6
2022-11-10T07:32:11.502Z,9.6
2022-11-10T07:33:11.577Z,9.7
2022-11-10T07:34:11.694Z,9.8
2022-11-10T07:35:11.733Z,9.8
2022-11-10T07:36:11.834Z,9.9
2022-11-10T07:37:11.856Z,9.8
2022-11-10T07:38:11.964Z,9.8
2022-11-10T07:39:12.049Z,9.9
2022-11-10T07:40:12.134Z,9.9
2022-11-10T07:41:12.188Z,9.8
2022-11-10T07:42:12.302Z,9.9
2022-11-10T07:43:12.325Z,9.9
2022-11-10T07:44:12.447Z,9.7
2022-11-10T07:45:18.043Z,9.8
2022-11-10T07:46:12.551Z,9.9
2022-11-10T07:47:12.621Z,10
2022-11-10T07:48:13.023Z,10
2022-11-10T07:49:18.022Z,10.1
2022-11-10T07:50:12.870Z,10.1
2022-11-10T07:51:12.993Z,10.1
2022-11-10T07:52:13.046Z,10.2
2022-11-10T07:53:13.169Z,10.2
2022-11-10T07:54:13.225Z,10.3
2022-11-10T07:55:13.284Z,10.3
2022-11-10T07:56:13.345Z,10.4
2022-11-10T07:57:13.361Z,10.4
2022-11-10T07:58:13.470Z,10.4
2022-11-10T07:59:13.783Z,10.4
2022-11-10T08:00:14.649Z,10.4
2022-11-10T08:01:18.639Z,10.4
2022-11-10T08:02:15.657Z,10.3
2022-11-10T08:08:19.009Z,10.9
2022-11-10T08:09:15.083Z,10.9
2022-11-10T08:10:14.162Z,11
2022-11-10T08:11:14.311Z,11
2022-11-10T08:12:14.338Z,11.1
2022-11-10T08:13:14.594Z,11
2022-11-10T08:14:14.437Z,11
2022-11-10T08:15:14.488Z,11
2022-11-10T08:16:14.600Z,11
2022-11-10T08:17:19.867Z,11
2022-11-10T08:18:19.692Z,11
2022-11-10T08:19:14.726Z,11
2022-11-10T08:20:15.022Z,11.2
2022-11-10T08:21:15.070Z,11.1
2022-11-10T08:22:14.880Z,11.1
2022-11-10T08:23:15.053Z,11.1
2022-11-10T08:24:15.094Z,11.1
2022-11-10T08:25:15.248Z,11.1
2022-11-10T08:26:15.159Z,11
2022-11-10T08:27:15.337Z,11.1
2022-11-10T08:28:15.331Z,11.1
2022-11-10T08:29:18.519Z,11.1
2022-11-10T08:30:15.459Z,11.2
2022-11-10T08:31:15.522Z,11.3
2022-11-10T08:32:15.596Z,11.3
2022-11-10T08:33:15.757Z,11.3
2022-11-10T08:34:15.783Z,11.5
2022-11-10T08:35:15.851Z,11.4
2022-11-10T08:36:15.904Z,11.4
2022-11-10T08:37:15.956Z,11.5
2022-11-10T08:38:17.035Z,11.4
2022-11-10T08:39:17.618Z,11.3
2022-11-10T08:40:16.190Z,11.3
2022-11-10T08:41:16.546Z,11.3
2022-11-10T08:42:16.734Z,11.4
2022-11-10T08:43:16.406Z,11.5
2022-11-10T08:45:18.942Z,11.4
2022-11-10T08:46:05.810Z,11.4
2022-11-10T08:46:16.638Z,11.4
2022-11-10T08:47:16.895Z,11.6
2022-11-10T08:48:18.287Z,11.7
2022-11-10T08:49:16.967Z,11.8
2022-11-10T08:50:16.987Z,11.9
2022-11-10T08:51:18.808Z,12
2022-11-10T08:52:17.090Z,12
2022-11-10T08:53:17.169Z,12.1
2022-11-10T08:54:17.307Z,12
2022-11-10T08:55:17.890Z,12
2022-11-10T08:56:22.404Z,12
2022-11-10T08:57:17.426Z,11.9
2022-11-10T08:58:17.563Z,11.8
2022-11-10T08:59:18.111Z,12
2022-11-10T09:00:17.750Z,12
2022-11-10T09:01:19.387Z,12
2022-11-10T09:02:17.813Z,12
2022-11-10T09:03:19.443Z,11.9
2022-11-10T09:04:18.623Z,11.9
2022-11-10T09:05:19.514Z,12.2
2022-11-10T09:06:18.077Z,12.4
2022-11-10T09:07:18.287Z,12.4
2022-11-10T09:08:18.270Z,12.4
2022-11-10T09:09:18.572Z,12.4
2022-11-10T09:10:18.378Z,12.5
2022-11-10T09:11:26.972Z,12.4
2022-11-10T09:12:19.958Z,12.6
2022-11-10T09:13:18.552Z,12.7
2022-11-10T09:14:18.609Z,12.8
2022-11-10T09:15:18.649Z,12.9
2022-11-10T09:16:18.738Z,13.2
2022-11-10T09:17:18.807Z,13.2
2022-11-10T09:18:18.774Z,13.2
2022-11-10T09:19:20.144Z,12.9
2022-11-10T09:20:19.235Z,12.6
2022-11-10T09:21:19.836Z,12.5
2022-11-10T09:22:19.068Z,12.6
2022-11-10T09:23:27.231Z,12.8
2022-11-10T09:24:28.531Z,13
2022-11-10T09:25:19.266Z,13.1
2022-11-10T09:26:19.294Z,12.8
2022-11-10T09:27:19.633Z,12.6
2022-11-10T09:28:19.453Z,12.9
2022-11-10T09:29:19.486Z,13.1
2022-11-10T09:30:19.953Z,13.2
2022-11-10T09:31:19.622Z,13.2
2022-11-10T09:32:19.955Z,13.3
2022-11-10T09:33:22.372Z,13.4
2022-11-10T09:34:19.834Z,13.3
2022-11-10T09:35:19.876Z,13.5
2022-11-10T09:36:19.920Z,13.6
2022-11-10T09:37:20.191Z,13.8
2022-11-10T09:38:20.446Z,14.1
2022-11-10T09:39:20.119Z,14.1
2022-11-10T09:40:20.212Z,14.2
2022-11-10T09:41:20.274Z,14.7
2022-11-10T09:42:20.352Z,15.2
2022-11-10T09:43:20.728Z,15.4
2022-11-10T09:44:20.505Z,15.4
2022-11-10T09:45:23.554Z,15.1
2022-11-10T09:46:20.596Z,14.8
2022-11-10T09:47:35.495Z,14.9
2022-11-10T09:48:21.208Z,15.1
2022-11-10T09:49:35.850Z,15.1
2022-11-10T09:50:45.167Z,14.9
2022-11-10T09:51:48.258Z,14.9
2022-11-10T09:52:45.476Z,14.5
2022-11-10T09:53:45.297Z,14.3
2022-11-10T09:54:45.182Z,14.5
2022-11-10T09:55:45.581Z,14.8
2022-11-10T09:56:45.372Z,15
2022-11-10T09:57:48.808Z,15.3
2022-11-10T09:58:45.540Z,15.1
2022-11-10T09:59:45.542Z,15.4
2022-11-10T10:00:45.612Z,15.5
2022-11-10T10:01:45.905Z,15.6
2022-11-10T10:02:45.698Z,15.7
2022-11-10T10:03:50.665Z,15.5
2022-11-10T10:04:51.606Z,15.2
2022-11-10T10:05:45.779Z,15
2022-11-10T10:07:05.289Z,15.3
2022-11-10T10:07:46.168Z,15.7
2022-11-10T10:08:46.251Z,16
2022-11-10T10:09:46.367Z,16.2
2022-11-10T10:10:46.495Z,16.4
2022-11-10T10:11:46.378Z,15.8
2022-11-10T10:12:47.022Z,15.2
2022-11-10T10:13:46.522Z,15.4
2022-11-10T10:14:46.659Z,15.8
2022-11-10T10:15:47.556Z,15.7
2022-11-10T10:16:46.849Z,15.6
2022-11-10T10:17:46.796Z,15.6
2022-11-10T10:18:46.857Z,15.7
2022-11-10T10:19:46.956Z,16.1
2022-11-10T10:20:46.920Z,16
2022-11-10T10:21:47.186Z,16
2022-11-10T10:22:51.882Z,15.9
2022-11-10T10:24:08.284Z,15.9
2022-11-10T10:24:47.021Z,15.8
2022-11-10T10:25:48.116Z,15.8
2022-11-10T10:26:47.139Z,16
2022-11-10T10:27:47.224Z,16.2
2022-11-10T10:28:47.324Z,16.3
2022-11-10T10:29:47.283Z,16.7
2022-11-10T10:30:47.361Z,16.3
2022-11-10T10:31:47.400Z,16.3
2022-11-10T10:32:47.488Z,16.4
2022-11-10T10:33:47.522Z,16.4
2022-11-10T10:34:47.578Z,16.5
2022-11-10T10:35:47.640Z,16.8
2022-11-10T10:36:47.764Z,16.6
2022-11-10T10:37:48.035Z,16.4
2022-11-10T10:38:47.833Z,16.4
2022-11-10T10:39:47.930Z,16
2022-11-10T10:40:48.045Z,16.7
2022-11-10T10:41:48.080Z,17.2
2022-11-10T10:42:48.106Z,16.9
2022-11-10T10:43:48.161Z,17
2022-11-10T10:44:48.359Z,17.2
2022-11-10T10:45:48.437Z,16.6
2022-11-10T10:46:48.393Z,16.3
2022-11-10T10:47:48.487Z,16.3
2022-11-10T10:48:53.801Z,16.6
2022-11-10T10:49:48.717Z,16.6
2022-11-10T10:50:56.922Z,16.4
2022-11-10T10:52:09.070Z,16.4
2022-11-10T10:53:09.277Z,16.3
2022-11-10T10:54:09.287Z,16.4
2022-11-10T10:55:09.436Z,16.3
2022-11-10T10:56:09.313Z,16.6
2022-11-10T10:57:09.283Z,16.9
2022-11-10T10:58:09.305Z,16.9
2022-11-10T10:59:09.421Z,16.7
2022-11-10T11:00:09.447Z,17
2022-11-10T11:01:09.512Z,17.3
2022-11-10T11:02:09.627Z,17
2022-11-10T11:03:14.562Z,17.2
2022-11-10T11:04:09.712Z,17.3
2022-11-10T11:05:10.581Z,17.1
2022-11-10T11:06:09.840Z,16.8
2022-11-10T11:07:10.101Z,17
2022-11-10T11:08:09.986Z,17
2022-11-10T11:09:10.130Z,16.7
2022-11-10T11:10:10.171Z,16.7
2022-11-10T11:11:10.371Z,16.5
2022-11-10T11:12:10.344Z,17.2
2022-11-10T11:13:10.662Z,17.3
2022-11-10T11:14:10.468Z,17
2022-11-10T11:15:11.644Z,16.7
2022-11-10T11:16:10.580Z,16.7
2022-11-10T11:17:10.751Z,16.9
2022-11-10T11:18:10.776Z,17.3
2022-11-10T11:19:11.929Z,17
2022-11-10T11:20:10.945Z,16.9
2022-11-10T11:21:11.916Z,17.2
2022-11-10T11:22:10.992Z,17.1
2022-11-10T11:23:11.095Z,16.9
2022-11-10T11:24:23.709Z,16.4
2022-11-10T11:25:12.420Z,16.4
2022-11-10T11:26:11.308Z,16.4
2022-11-10T11:27:11.382Z,16.3
2022-11-10T11:28:11.481Z,16.6
2022-11-10T11:29:11.537Z,16.8
2022-11-10T11:30:11.634Z,16.4
2022-11-10T11:31:11.934Z,16.5
2022-11-10T11:32:11.692Z,16.5
2022-11-10T11:33:11.835Z,16.4
2022-11-10T11:34:11.864Z,16.3
2022-11-10T11:35:12.781Z,16.3
2022-11-10T11:36:12.240Z,16.5
2022-11-10T11:37:15.341Z,16.8
2022-11-10T11:38:12.040Z,17.1
2022-11-10T11:39:12.558Z,16.9
2022-11-10T11:40:12.172Z,16.7
2022-11-10T11:41:12.264Z,16.8
2022-11-10T11:42:12.888Z,17
2022-11-10T11:43:12.420Z,17.1
2022-11-10T11:44:12.503Z,17
2022-11-10T11:45:14.803Z,16.9
2022-11-10T11:46:12.541Z,17.1
2022-11-10T11:47:12.612Z,17.1
2022-11-10T11:48:12.891Z,17.3
2022-11-10T11:49:12.777Z,17.3
2022-11-10T11:50:12.779Z,17.4
2022-11-10T11:51:13.049Z,17.7
2022-11-10T11:52:26.977Z,17.4
2022-11-10T11:53:54.743Z,17.4
2022-11-10T11:54:54.869Z,17.5
2022-11-10T11:55:54.988Z,17.4
2022-11-10T11:56:55.017Z,17.3
2022-11-10T11:57:55.078Z,17.3
2022-11-10T11:58:55.102Z,17
2022-11-10T11:59:55.246Z,16.9
2022-11-10T12:00:55.270Z,17
2022-11-10T12:01:55.352Z,17.1
2022-11-10T12:02:55.451Z,17
2022-11-10T12:03:55.528Z,16.9
2022-11-10T12:04:55.487Z,17
2022-11-10T12:05:55.585Z,17
2022-11-10T12:06:55.960Z,16.9
2022-11-10T12:07:55.710Z,17.1
2022-11-10T12:08:55.772Z,17.5
2022-11-10T12:09:55.850Z,17.2
2022-11-10T12:10:55.947Z,16.9
2022-11-10T12:11:56.039Z,16.7
2022-11-10T12:12:56.101Z,17.1
2022-11-10T12:13:56.457Z,17.3
2022-11-10T12:14:56.311Z,17.2
2022-11-10T12:15:56.624Z,16.9
2022-11-10T12:16:56.677Z,17.1
2022-11-10T12:17:56.538Z,17.2
2022-11-10T12:18:56.598Z,17
2022-11-10T12:19:56.693Z,16.5
2022-11-10T12:20:56.788Z,16.6
2022-11-10T12:21:56.911Z,16.9
2022-11-10T12:22:56.957Z,17
2022-11-10T12:23:57.005Z,16.9
2022-11-10T12:24:57.111Z,16.7
2022-11-10T12:25:57.163Z,16.6
2022-11-10T12:26:57.360Z,16.8
2022-11-10T12:27:57.409Z,17.4
2022-11-10T12:28:57.439Z,17.8
2022-11-10T12:29:57.491Z,17.6
2022-11-10T12:31:01.719Z,17.3
2022-11-10T12:31:57.740Z,17.2
2022-11-10T12:32:57.807Z,17
2022-11-10T12:33:57.877Z,17
2022-11-10T12:34:57.942Z,16.7
2022-11-10T12:35:58.023Z,16.7
2022-11-10T12:36:58.086Z,16.8
2022-11-10T12:37:58.202Z,16.8
2022-11-10T12:38:59.827Z,17
2022-11-10T12:39:58.358Z,17.1
2022-11-10T12:40:58.425Z,16.8
2022-11-10T12:41:58.570Z,16.9
2022-11-10T12:42:58.723Z,16.9
2022-11-10T12:43:58.661Z,16.8
2022-11-10T12:44:58.730Z,16.7
2022-11-10T12:45:58.868Z,16.9
2022-11-10T12:46:58.932Z,16.5
2022-11-10T12:47:58.969Z,16.4
2022-11-10T12:48:59.033Z,16.7
2022-11-10T12:49:59.241Z,16.9
2022-11-10T12:50:59.052Z,17.1
2022-11-10T12:51:59.165Z,17.4
2022-11-10T12:52:59.178Z,17.4
2022-11-10T12:53:59.297Z,17.5
2022-11-10T12:55:00.870Z,17.5
2022-11-10T12:55:59.537Z,17.5
2022-11-10T12:56:59.636Z,17.5
2022-11-10T12:57:59.615Z,17.3
2022-11-10T12:58:59.624Z,17
2022-11-10T13:01:04.387Z,17.1
2022-11-10T13:01:04.434Z,17
2022-11-10T13:01:59.836Z,17.3
2022-11-10T13:02:59.906Z,17.2
2022-11-10T13:03:59.934Z,16.9
2022-11-10T13:05:00.039Z,16.7
2022-11-10T13:06:00.043Z,16.6
2022-11-10T13:07:00.239Z,16.9
2022-11-10T13:08:00.240Z,17.2
2022-11-10T13:09:00.287Z,17.2
2022-11-10T13:10:00.337Z,16.9
2022-11-10T13:11:00.374Z,17
2022-11-10T13:12:00.518Z,17
2022-11-10T13:13:00.546Z,16.7
2022-11-10T13:14:00.619Z,16.6
2022-11-10T13:15:00.637Z,16.4
2022-11-10T13:16:00.721Z,16.4
2022-11-10T13:17:05.793Z,16.5
2022-11-10T13:18:01.093Z,16.5
2022-11-10T13:19:00.896Z,16.6
2022-11-10T13:20:30.358Z,16.5
2022-11-10T13:21:01.006Z,16.3
2022-11-10T13:22:01.043Z,16
2022-11-10T13:23:01.092Z,16.1
2022-11-10T13:24:01.142Z,16.2
2022-11-10T13:25:01.263Z,16
2022-11-10T13:26:01.184Z,16.1
2022-11-10T13:27:01.270Z,16
2022-11-10T13:28:01.329Z,15.7
2022-11-10T13:29:01.363Z,15.8
2022-11-10T13:30:01.459Z,15.6
2022-11-10T13:31:01.514Z,15.5
2022-11-10T13:32:01.581Z,15.5
2022-11-10T13:33:01.662Z,15.4
2022-11-10T13:34:01.734Z,15.3
2022-11-10T13:35:01.788Z,15.3
2022-11-10T13:36:01.916Z,15.4
2022-11-10T13:37:01.972Z,15.5
2022-11-10T13:38:02.049Z,15.5
2022-11-10T13:39:02.056Z,15.5
2022-11-10T13:40:02.187Z,15.4
2022-11-10T13:41:02.215Z,15.3
2022-11-10T13:42:02.300Z,15.4
2022-11-10T13:43:02.361Z,15.4
2022-11-10T13:44:02.436Z,15.3
2022-11-10T13:45:02.477Z,15.3
2022-11-10T13:46:03.581Z,15.1
2022-11-10T13:47:02.629Z,15
2022-11-10T13:48:02.706Z,14.9
2022-11-10T13:49:03.025Z,14.8
2022-11-10T13:50:02.833Z,14.9
2022-11-10T13:51:02.885Z,14.8